首页
METAR-TAF:

METAR-TAF

机场 :

北京首都国际机场

北京, 中华人民共和国

纬度: 39-56N, 经度: 116-17E, 海拔: 55米

当前天气观测

该预报发布于15分钟前的14:30 UTC
风速4节,风向,在南转南东西南之间变化
温度 -2°C
湿度 50%
气压 1040 hPa
能见度10公里或以上
1500米以下无云,无积雨云

METAR: ZBAA 301430Z 19002MPS 150V230 CAVOK M02/M11 Q1040 NOSIG

时间: 22:45 (14:45 UTC)

预报

该预报发布于5小时和44分钟前的09:01 UTC
预报有效从30日的 12点(UTC)到 01日的 12点(UTC)
风速8节,风向北转东北
能见度10公里或以上
1500米以下无云,无积雨云

TAF: ZBAA 300901Z 3012/0112 02004MPS CAVOK TX05/0107Z TNM06/3021Z

超过4000个机场的气象观测和天气预报(METAR&TAF报告)。

可查询的气象台以黄色和红色小点在地图上表示。

将鼠标移到小点上方,可查看气象台名称。

然后点击查看天气观测和预报。

如需切换地图:点击带黑十字的绿色按钮放大地图;点击带横线的绿色按钮缩小地图;或者点击绿色箭头查看邻近地区的地图。


METAR-TAF: